createdAt,value
2022-11-21T00:00:09.417Z,98251.77
2022-11-21T00:00:19.407Z,98249.19
2022-11-21T00:00:29.489Z,98250.00
2022-11-21T00:00:39.482Z,98246.19
2022-11-21T00:00:49.453Z,98250.80
2022-11-21T00:00:59.453Z,98245.12
2022-11-21T00:01:09.513Z,98245.72
2022-11-21T00:01:19.486Z,98244.74
2022-11-21T00:01:29.435Z,98249.95
2022-11-21T00:01:39.523Z,98249.78
2022-11-21T00:01:49.544Z,98249.12
2022-11-21T00:01:59.448Z,98249.86
2022-11-21T00:02:09.545Z,98249.59
2022-11-21T00:02:19.512Z,98250.59
2022-11-21T00:02:29.501Z,98247.88
2022-11-21T00:02:39.438Z,98244.91
2022-11-21T00:02:49.386Z,98241.90
2022-11-21T00:02:59.460Z,98248.00
2022-11-21T00:03:09.470Z,98246.59
2022-11-21T00:03:19.437Z,98246.27
2022-11-21T00:03:29.411Z,98245.31
2022-11-21T00:03:39.505Z,98251.74
2022-11-21T00:03:49.482Z,98251.38
2022-11-21T00:03:59.412Z,98246.18
2022-11-21T00:04:09.396Z,98246.55
2022-11-21T00:04:19.474Z,98248.73
2022-11-21T00:04:29.734Z,98247.80
2022-11-21T00:04:39.458Z,98248.89
2022-11-21T00:04:49.443Z,98246.59
2022-11-21T00:04:59.474Z,98249.95
2022-11-21T00:05:09.468Z,98247.48
2022-11-21T00:05:19.464Z,98249.11
2022-11-21T00:05:29.430Z,98250.57
2022-11-21T00:05:39.510Z,98245.80
2022-11-21T00:05:49.478Z,98249.14
2022-11-21T00:05:59.455Z,98249.84
2022-11-21T00:06:09.509Z,98248.17
2022-11-21T00:06:19.501Z,98247.67
2022-11-21T00:06:29.424Z,98249.41
2022-11-21T00:06:39.408Z,98247.84
2022-11-21T00:06:49.493Z,98246.12
2022-11-21T00:06:59.555Z,98249.54
2022-11-21T00:07:09.529Z,98251.00
2022-11-21T00:07:19.491Z,98249.69
2022-11-21T00:07:29.551Z,98245.31
2022-11-21T00:07:39.493Z,98244.64
2022-11-21T00:07:49.490Z,98245.94
2022-11-21T00:07:59.470Z,98249.54
2022-11-21T00:08:09.482Z,98245.47
2022-11-21T00:08:19.501Z,98247.23
2022-11-21T00:08:29.506Z,98246.43
2022-11-21T00:08:39.453Z,98246.86
2022-11-21T00:08:49.474Z,98239.62
2022-11-21T00:08:59.460Z,98244.16
2022-11-21T00:09:09.464Z,98245.56
2022-11-21T00:09:19.403Z,98244.27
2022-11-21T00:09:29.392Z,98246.00
2022-11-21T00:09:39.408Z,98245.61
2022-11-21T00:09:49.519Z,98242.15
2022-11-21T00:09:59.453Z,98238.97
2022-11-21T00:10:09.505Z,98244.91
2022-11-21T00:10:19.421Z,98243.84
2022-11-21T00:10:29.434Z,98243.77
2022-11-21T00:10:39.416Z,98242.42
2022-11-21T00:10:49.382Z,98246.62
2022-11-21T00:10:59.479Z,98240.25
2022-11-21T00:11:09.484Z,98241.01
2022-11-21T00:11:19.488Z,98240.84
2022-11-21T00:11:29.470Z,98239.88
2022-11-21T00:11:39.504Z,98243.45
2022-11-21T00:11:49.458Z,98240.36
2022-11-21T00:11:59.463Z,98241.26
2022-11-21T00:12:09.392Z,98237.76
2022-11-21T00:12:19.399Z,98237.81
2022-11-21T00:12:29.528Z,98238.50
2022-11-21T00:12:39.496Z,98240.80
2022-11-21T00:12:49.472Z,98240.25
2022-11-21T00:12:59.487Z,98239.70
2022-11-21T00:13:09.434Z,98241.58
2022-11-21T00:13:19.457Z,98238.25
2022-11-21T00:13:29.417Z,98238.41
2022-11-21T00:13:39.502Z,98236.18
2022-11-21T00:13:49.445Z,98237.11
2022-11-21T00:13:59.480Z,98239.88
2022-11-21T00:14:09.441Z,98235.64
2022-11-21T00:14:19.403Z,98237.43
2022-11-21T00:14:29.588Z,98239.92
2022-11-21T00:14:39.450Z,98239.05
2022-11-21T00:14:49.504Z,98238.08
2022-11-21T00:14:59.438Z,98243.07
2022-11-21T00:15:09.470Z,98242.40
2022-11-21T00:15:19.466Z,98235.86
2022-11-21T00:15:29.469Z,98237.03
2022-11-21T00:15:39.511Z,98239.38
2022-11-21T00:15:49.490Z,98235.80
2022-11-21T00:15:59.393Z,98235.31
2022-11-21T00:16:09.473Z,98235.86
2022-11-21T00:16:19.465Z,98236.86
2022-11-21T00:16:29.417Z,98236.15
2022-11-21T00:16:39.509Z,98238.42
2022-11-21T00:16:52.144Z,98236.88
2022-11-21T00:16:59.406Z,98244.77
2022-11-21T00:17:09.423Z,98239.96
2022-11-21T00:17:19.512Z,98238.09
2022-11-21T00:17:29.512Z,98243.78
2022-11-21T00:17:39.390Z,98235.17
2022-11-21T00:17:49.502Z,98238.75
2022-11-21T00:17:59.491Z,98240.25
2022-11-21T00:18:09.457Z,98243.72
2022-11-21T00:18:19.486Z,98240.95
2022-11-21T00:18:29.411Z,98239.64
2022-11-21T00:18:39.445Z,98237.45
2022-11-21T00:18:49.499Z,98238.99
2022-11-21T00:18:59.402Z,98241.73
2022-11-21T00:19:09.443Z,98234.45
2022-11-21T00:19:19.431Z,98237.01
2022-11-21T00:19:29.400Z,98242.57
2022-11-21T00:19:39.466Z,98233.64
2022-11-21T00:19:49.431Z,98233.59
2022-11-21T00:19:59.442Z,98237.63
2022-11-21T00:20:09.391Z,98232.74
2022-11-21T00:20:19.512Z,98230.30
2022-11-21T00:20:29.490Z,98232.58
2022-11-21T00:20:39.444Z,98226.94
2022-11-21T00:20:49.428Z,98229.70
2022-11-21T00:20:59.441Z,98231.28
2022-11-21T00:21:09.533Z,98232.88
2022-11-21T00:21:19.430Z,98234.78
2022-11-21T00:21:29.403Z,98234.37
2022-11-21T00:21:39.467Z,98230.77
2022-11-21T00:21:49.515Z,98234.77
2022-11-21T00:21:59.401Z,98233.59
2022-11-21T00:22:09.455Z,98230.23
2022-11-21T00:22:19.458Z,98227.79
2022-11-21T00:22:29.391Z,98233.77
2022-11-21T00:22:39.518Z,98234.69
2022-11-21T00:22:49.501Z,98233.44
2022-11-21T00:22:59.466Z,98231.33
2022-11-21T00:23:09.465Z,98231.92
2022-11-21T00:23:19.491Z,98229.00
2022-11-21T00:23:29.396Z,98228.84
2022-11-21T00:23:39.415Z,98229.48
2022-11-21T00:23:49.480Z,98232.17
2022-11-21T00:23:59.393Z,98228.87
2022-11-21T00:24:09.537Z,98232.77
2022-11-21T00:24:19.417Z,98231.63
2022-11-21T00:24:29.637Z,98231.03
2022-11-21T00:24:39.436Z,98231.63
2022-11-21T00:24:53.884Z,98233.67
2022-11-21T00:24:59.506Z,98231.74
2022-11-21T00:25:09.423Z,98230.86
2022-11-21T00:25:19.417Z,98231.12
2022-11-21T00:25:29.506Z,98230.31
2022-11-21T00:25:39.404Z,98227.77
2022-11-21T00:25:49.441Z,98230.16
2022-11-21T00:25:59.500Z,98229.30
2022-11-21T00:26:09.522Z,98227.75
2022-11-21T00:26:19.440Z,98225.72
2022-11-21T00:26:29.502Z,98227.08
2022-11-21T00:26:39.456Z,98227.62
2022-11-21T00:26:49.438Z,98222.63
2022-11-21T00:26:59.377Z,98223.69
2022-11-21T00:27:09.487Z,98222.88
2022-11-21T00:27:19.514Z,98229.09
2022-11-21T00:27:29.483Z,98228.23
2022-11-21T00:27:39.393Z,98227.73
2022-11-21T00:27:49.538Z,98222.61
2022-11-21T00:27:59.440Z,98226.93
2022-11-21T00:28:09.453Z,98221.64
2022-11-21T00:28:19.402Z,98224.97
2022-11-21T00:28:29.495Z,98228.23
2022-11-21T00:28:39.498Z,98226.88
2022-11-21T00:28:49.507Z,98230.99
2022-11-21T00:28:59.471Z,98227.58
2022-11-21T00:29:09.392Z,98225.68
2022-11-21T00:29:19.428Z,98226.20
2022-11-21T00:29:29.401Z,98223.64
2022-11-21T00:29:39.500Z,98227.58
2022-11-21T00:29:49.518Z,98223.09
2022-11-21T00:29:59.504Z,98223.02
2022-11-21T00:30:09.485Z,98226.52
2022-11-21T00:30:19.492Z,98226.44
2022-11-21T00:30:29.379Z,98224.22
2022-11-21T00:30:39.448Z,98226.00
2022-11-21T00:30:49.536Z,98225.46
2022-11-21T00:30:59.502Z,98224.72
2022-11-21T00:31:09.398Z,98229.53
2022-11-21T00:31:19.413Z,98227.30
2022-11-21T00:31:29.484Z,98227.17
2022-11-21T00:31:39.465Z,98227.47
2022-11-21T00:31:49.433Z,98224.00
2022-11-21T00:31:59.384Z,98225.97
2022-11-21T00:32:09.381Z,98224.72
2022-11-21T00:32:19.507Z,98223.08
2022-11-21T00:32:29.450Z,98221.84
2022-11-21T00:32:39.492Z,98225.10
2022-11-21T00:32:49.477Z,98221.36
2022-11-21T00:32:59.457Z,98219.25
2022-11-21T00:33:09.438Z,98221.53
2022-11-21T00:33:19.444Z,98222.42
2022-11-21T00:33:29.414Z,98221.81
2022-11-21T00:33:39.506Z,98221.59
2022-11-21T00:33:49.520Z,98222.14
2022-11-21T00:33:59.410Z,98224.50
2022-11-21T00:34:09.393Z,98224.34
2022-11-21T00:34:19.417Z,98221.59
2022-11-21T00:34:29.683Z,98222.39
2022-11-21T00:34:39.422Z,98221.74
2022-11-21T00:34:49.400Z,98223.80
2022-11-21T00:34:59.384Z,98224.02
2022-11-21T00:35:09.434Z,98218.08
2022-11-21T00:35:19.472Z,98219.70
2022-11-21T00:35:29.399Z,98221.77
2022-11-21T00:35:39.401Z,98219.27
2022-11-21T00:35:49.496Z,98217.31
2022-11-21T00:35:59.446Z,98216.20
2022-11-21T00:36:09.428Z,98218.16
2022-11-21T00:36:19.503Z,98218.69
2022-11-21T00:36:29.398Z,98214.64
2022-11-21T00:36:39.395Z,98218.28
2022-11-21T00:36:49.397Z,98213.48
2022-11-21T00:36:59.436Z,98213.89
2022-11-21T00:37:09.402Z,98215.03
2022-11-21T00:37:19.399Z,98216.66
2022-11-21T00:37:29.492Z,98214.05
2022-11-21T00:37:39.492Z,98212.31
2022-11-21T00:37:49.483Z,98214.19
2022-11-21T00:37:59.417Z,98216.81
2022-11-21T00:38:09.412Z,98214.92
2022-11-21T00:38:19.403Z,98215.98
2022-11-21T00:38:29.376Z,98210.58
2022-11-21T00:38:39.485Z,98212.59
2022-11-21T00:38:49.519Z,98212.39
2022-11-21T00:38:59.459Z,98211.41
2022-11-21T00:39:09.385Z,98213.75
2022-11-21T00:39:19.527Z,98211.58
2022-11-21T00:39:29.504Z,98216.11
2022-11-21T00:39:39.446Z,98215.64
2022-11-21T00:39:49.453Z,98210.77
2022-11-21T00:39:59.425Z,98210.38
2022-11-21T00:40:09.420Z,98216.34
2022-11-21T00:40:19.392Z,98212.55
2022-11-21T00:40:29.383Z,98214.61
2022-11-21T00:40:39.418Z,98215.27
2022-11-21T00:40:49.419Z,98210.45
2022-11-21T00:40:59.449Z,98213.75
2022-11-21T00:41:09.478Z,98212.17
2022-11-21T00:41:19.452Z,98211.69
2022-11-21T00:41:29.411Z,98211.73
2022-11-21T00:41:39.402Z,98211.20
2022-11-21T00:41:49.511Z,98212.01
2022-11-21T00:41:59.460Z,98208.88
2022-11-21T00:42:09.416Z,98217.54
2022-11-21T00:42:19.522Z,98208.83
2022-11-21T00:42:29.378Z,98208.83
2022-11-21T00:42:39.436Z,98208.36
2022-11-21T00:42:49.419Z,98210.97
2022-11-21T00:42:59.471Z,98205.95
2022-11-21T00:43:09.381Z,98207.58
2022-11-21T00:43:19.426Z,98207.61
2022-11-21T00:43:29.440Z,98206.44
2022-11-21T00:43:39.473Z,98210.70
2022-11-21T00:43:49.508Z,98208.42
2022-11-21T00:43:59.499Z,98204.53
2022-11-21T00:44:09.430Z,98203.07
2022-11-21T00:44:19.426Z,98201.88
2022-11-21T00:44:29.665Z,98203.16
2022-11-21T00:44:39.454Z,98201.06
2022-11-21T00:44:49.445Z,98200.14
2022-11-21T00:44:59.445Z,98207.77
2022-11-21T00:45:09.433Z,98206.97
2022-11-21T00:45:24.140Z,98203.55
2022-11-21T00:45:29.509Z,98206.62
2022-11-21T00:45:39.477Z,98202.89
2022-11-21T00:45:49.399Z,98201.42
2022-11-21T00:45:59.410Z,98201.12
2022-11-21T00:46:09.502Z,98205.31
2022-11-21T00:46:19.391Z,98202.89
2022-11-21T00:46:29.436Z,98201.41
2022-11-21T00:46:39.406Z,98201.73
2022-11-21T00:46:49.423Z,98201.34
2022-11-21T00:46:59.445Z,98202.27
2022-11-21T00:47:09.418Z,98204.44
2022-11-21T00:47:19.441Z,98196.88
2022-11-21T00:47:29.508Z,98202.41
2022-11-21T00:47:39.379Z,98196.98
2022-11-21T00:47:49.445Z,98202.41
2022-11-21T00:47:59.457Z,98200.12
2022-11-21T00:48:09.436Z,98196.84
2022-11-21T00:48:19.427Z,98201.09
2022-11-21T00:48:29.421Z,98204.01
2022-11-21T00:48:39.383Z,98200.27
2022-11-21T00:48:49.404Z,98204.77
2022-11-21T00:48:59.404Z,98203.03
2022-11-21T00:49:09.467Z,98198.50
2022-11-21T00:49:19.415Z,98198.17
2022-11-21T00:49:29.475Z,98198.98
2022-11-21T00:49:39.425Z,98201.34
2022-11-21T00:49:49.397Z,98197.55
2022-11-21T00:49:59.473Z,98202.36
2022-11-21T00:50:09.423Z,98203.25
2022-11-21T00:50:19.523Z,98207.19
2022-11-21T00:50:29.441Z,98201.98
2022-11-21T00:50:39.389Z,98205.36
2022-11-21T00:50:49.505Z,98200.70
2022-11-21T00:50:59.413Z,98206.39
2022-11-21T00:51:09.496Z,98204.28
2022-11-21T00:51:19.477Z,98202.24
2022-11-21T00:51:29.394Z,98199.58
2022-11-21T00:51:39.448Z,98199.98
2022-11-21T00:51:49.534Z,98204.28
2022-11-21T00:51:59.395Z,98194.96
2022-11-21T00:52:09.495Z,98199.67
2022-11-21T00:52:19.436Z,98199.75
2022-11-21T00:52:29.420Z,98199.95
2022-11-21T00:52:39.458Z,98199.59
2022-11-21T00:52:49.478Z,98198.28
2022-11-21T00:52:59.460Z,98196.98
2022-11-21T00:53:09.394Z,98197.55
2022-11-21T00:53:19.452Z,98198.72
2022-11-21T00:53:29.461Z,98203.53
2022-11-21T00:53:39.478Z,98202.35
2022-11-21T00:53:49.416Z,98196.09
2022-11-21T00:53:59.414Z,98198.21
2022-11-21T00:54:09.401Z,98200.19
2022-11-21T00:54:19.481Z,98196.98
2022-11-21T00:54:29.748Z,98203.04
2022-11-21T00:54:39.506Z,98195.61
2022-11-21T00:54:49.460Z,98197.62
2022-11-21T00:54:59.433Z,98200.22
2022-11-21T00:55:09.387Z,98195.88
2022-11-21T00:55:19.515Z,98201.61
2022-11-21T00:55:29.511Z,98199.41
2022-11-21T00:55:39.427Z,98197.64
2022-11-21T00:55:49.407Z,98198.11
2022-11-21T00:55:59.436Z,98199.45
2022-11-21T00:56:09.445Z,98196.34
2022-11-21T00:56:19.407Z,98193.58
2022-11-21T00:56:29.505Z,98198.28
2022-11-21T00:56:39.475Z,98199.64
2022-11-21T00:56:49.453Z,98196.66
2022-11-21T00:56:59.454Z,98196.25
2022-11-21T00:57:09.414Z,98193.33
2022-11-21T00:57:19.479Z,98194.44
2022-11-21T00:57:29.416Z,98194.89
2022-11-21T00:57:39.486Z,98192.08
2022-11-21T00:57:49.449Z,98195.25
2022-11-21T00:57:59.411Z,98190.98
2022-11-21T00:58:09.417Z,98191.09
2022-11-21T00:58:19.454Z,98184.81
2022-11-21T00:58:29.458Z,98192.40
2022-11-21T00:58:39.376Z,98192.76
2022-11-21T00:58:49.502Z,98186.62
2022-11-21T00:58:59.438Z,98192.19
2022-11-21T00:59:09.477Z,98190.07
2022-11-21T00:59:19.393Z,98189.47
2022-11-21T00:59:29.493Z,98189.09
2022-11-21T00:59:39.504Z,98188.28
2022-11-21T00:59:49.385Z,98185.60
2022-11-21T00:59:59.533Z,98184.95
2022-11-21T01:00:09.510Z,98191.73
2022-11-21T01:00:19.391Z,98188.58
2022-11-21T01:00:29.548Z,98194.83
2022-11-21T01:00:39.476Z,98187.31
2022-11-21T01:00:49.476Z,98187.50
2022-11-21T01:00:59.508Z,98188.19
2022-11-21T01:01:09.484Z,98188.31
2022-11-21T01:01:19.470Z,98186.02
2022-11-21T01:01:29.519Z,98186.02
2022-11-21T01:01:39.469Z,98186.29
2022-11-21T01:01:49.380Z,98186.54
2022-11-21T01:01:59.442Z,98185.56
2022-11-21T01:02:09.418Z,98191.03
2022-11-21T01:02:19.488Z,98191.69
2022-11-21T01:02:29.516Z,98194.12
2022-11-21T01:02:39.403Z,98190.55
2022-11-21T01:02:49.398Z,98184.91
2022-11-21T01:02:59.531Z,98182.80
2022-11-21T01:03:09.381Z,98187.78
2022-11-21T01:03:19.509Z,98188.00
2022-11-21T01:03:29.508Z,98186.08
2022-11-21T01:03:39.435Z,98187.95
2022-11-21T01:03:49.413Z,98194.12
2022-11-21T01:03:59.426Z,98183.11
2022-11-21T01:04:09.488Z,98185.85
2022-11-21T01:04:19.441Z,98183.91
2022-11-21T01:04:29.603Z,98186.12
2022-11-21T01:04:39.490Z,98182.78
2022-11-21T01:04:49.484Z,98186.88
2022-11-21T01:04:59.447Z,98186.29
2022-11-21T01:05:09.398Z,98183.64
2022-11-21T01:05:19.498Z,98188.48
2022-11-21T01:05:29.499Z,98185.41
2022-11-21T01:05:39.402Z,98180.88
2022-11-21T01:05:49.402Z,98185.08
2022-11-21T01:05:59.480Z,98184.86
2022-11-21T01:06:09.419Z,98187.67
2022-11-21T01:06:19.436Z,98184.97
2022-11-21T01:06:29.519Z,98182.75
2022-11-21T01:06:39.485Z,98181.38
2022-11-21T01:06:49.381Z,98185.83
2022-11-21T01:06:59.477Z,98180.91
2022-11-21T01:07:09.546Z,98185.77
2022-11-21T01:07:19.536Z,98183.64
2022-11-21T01:07:29.617Z,98181.23
2022-11-21T01:07:39.428Z,98178.56
2022-11-21T01:07:49.381Z,98178.92
2022-11-21T01:07:59.399Z,98179.35
2022-11-21T01:08:09.452Z,98181.14
2022-11-21T01:08:19.407Z,98178.86
2022-11-21T01:08:29.401Z,98181.14
2022-11-21T01:08:39.396Z,98178.97
2022-11-21T01:08:49.472Z,98180.97
2022-11-21T01:08:59.494Z,98179.67
2022-11-21T01:09:09.460Z,98180.56
2022-11-21T01:09:19.462Z,98178.70
2022-11-21T01:09:29.524Z,98179.02
2022-11-21T01:09:39.469Z,98179.75
2022-11-21T01:09:49.495Z,98176.59
2022-11-21T01:09:59.403Z,98175.69
2022-11-21T01:10:09.489Z,98176.50
2022-11-21T01:10:19.406Z,98178.05
2022-11-21T01:10:29.455Z,98174.00
2022-11-21T01:10:39.404Z,98175.77
2022-11-21T01:10:49.416Z,98179.02
2022-11-21T01:10:59.412Z,98179.67
2022-11-21T01:11:09.436Z,98176.42
2022-11-21T01:11:19.500Z,98174.14
2022-11-21T01:11:29.500Z,98178.30
2022-11-21T01:11:39.447Z,98176.91
2022-11-21T01:11:49.466Z,98175.77
2022-11-21T01:11:59.467Z,98176.62
2022-11-21T01:12:09.401Z,98170.14
2022-11-21T01:12:19.412Z,98178.59
2022-11-21T01:12:29.402Z,98178.75
2022-11-21T01:12:39.381Z,98181.25
2022-11-21T01:12:49.421Z,98182.01
2022-11-21T01:12:59.389Z,98182.82
2022-11-21T01:13:09.450Z,98181.08
2022-11-21T01:13:19.430Z,98181.62
2022-11-21T01:13:29.403Z,98182.66
2022-11-21T01:13:39.525Z,98181.25
2022-11-21T01:13:49.376Z,98183.15
2022-11-21T01:13:59.489Z,98186.56
2022-11-21T01:14:09.433Z,98188.95
2022-11-21T01:14:19.447Z,98189.33
2022-11-21T01:14:29.834Z,98186.08
2022-11-21T01:14:39.399Z,98184.80
2022-11-21T01:14:49.439Z,98184.83
2022-11-21T01:14:59.486Z,98187.78
2022-11-21T01:15:09.501Z,98184.73
2022-11-21T01:15:19.426Z,98185.42
2022-11-21T01:15:29.396Z,98186.34
2022-11-21T01:15:39.379Z,98190.72
2022-11-21T01:15:49.396Z,98189.48
2022-11-21T01:15:59.413Z,98187.86
2022-11-21T01:16:09.498Z,98188.59
2022-11-21T01:16:19.417Z,98183.23
2022-11-21T01:16:29.412Z,98187.03
2022-11-21T01:16:39.482Z,98188.52
2022-11-21T01:16:49.461Z,98188.27
2022-11-21T01:16:59.416Z,98185.19
2022-11-21T01:17:09.465Z,98185.59
2022-11-21T01:17:19.382Z,98187.30
2022-11-21T01:17:29.445Z,98183.07
2022-11-21T01:17:39.415Z,98183.05
2022-11-21T01:17:49.449Z,98186.95
2022-11-21T01:17:59.438Z,98184.16
2022-11-21T01:18:09.420Z,98186.75
2022-11-21T01:18:19.494Z,98188.58
2022-11-21T01:18:29.494Z,98186.25
2022-11-21T01:18:39.423Z,98187.88
2022-11-21T01:18:49.496Z,98189.88
2022-11-21T01:18:59.508Z,98192.24
2022-11-21T01:19:09.440Z,98184.67
2022-11-21T01:19:19.402Z,98184.66
2022-11-21T01:19:29.472Z,98183.16
2022-11-21T01:19:39.513Z,98187.91
2022-11-21T01:19:49.458Z,98190.02
2022-11-21T01:19:59.465Z,98191.92
2022-11-21T01:20:09.433Z,98185.91
2022-11-21T01:20:19.446Z,98193.55
2022-11-21T01:20:29.434Z,98190.95
2022-11-21T01:20:39.499Z,98188.83
2022-11-21T01:20:49.506Z,98189.24
2022-11-21T01:20:59.389Z,98190.00
2022-11-21T01:21:09.435Z,98187.29
2022-11-21T01:21:19.434Z,98186.55
2022-11-21T01:21:29.422Z,98188.61
2022-11-21T01:21:39.444Z,98188.92
2022-11-21T01:21:49.439Z,98188.27
2022-11-21T01:21:59.465Z,98185.50
2022-11-21T01:22:09.461Z,98185.73
2022-11-21T01:22:19.422Z,98183.71
2022-11-21T01:22:29.399Z,98190.70
2022-11-21T01:22:39.481Z,98187.29
2022-11-21T01:22:49.478Z,98183.71
2022-11-21T01:22:59.500Z,98184.53
2022-11-21T01:23:09.505Z,98186.48
2022-11-21T01:23:19.442Z,98185.91
2022-11-21T01:23:29.464Z,98181.84
2022-11-21T01:23:39.488Z,98183.01
2022-11-21T01:23:49.432Z,98185.94
2022-11-21T01:23:59.498Z,98182.09
2022-11-21T01:24:09.485Z,98188.48
2022-11-21T01:24:19.423Z,98187.89
2022-11-21T01:24:29.669Z,98182.69
2022-11-21T01:24:39.451Z,98186.26
2022-11-21T01:24:49.377Z,98181.00
2022-11-21T01:24:59.439Z,98185.07
2022-11-21T01:25:09.509Z,98186.37
2022-11-21T01:25:19.435Z,98186.34
2022-11-21T01:25:29.393Z,98185.86
2022-11-21T01:25:39.471Z,98187.76
2022-11-21T01:25:49.457Z,98186.67
2022-11-21T01:25:59.470Z,98188.16
2022-11-21T01:26:09.494Z,98190.44
2022-11-21T01:26:19.454Z,98187.92
2022-11-21T01:26:29.419Z,98188.48
2022-11-21T01:26:39.470Z,98189.62
2022-11-21T01:26:49.472Z,98191.50
2022-11-21T01:26:59.554Z,98187.51
2022-11-21T01:27:09.443Z,98188.81
2022-11-21T01:27:19.413Z,98188.89
2022-11-21T01:27:29.440Z,98187.00
2022-11-21T01:27:39.466Z,98187.02
2022-11-21T01:27:49.455Z,98189.33
2022-11-21T01:27:59.492Z,98186.34
2022-11-21T01:28:09.468Z,98188.03
2022-11-21T01:28:19.440Z,98189.82
2022-11-21T01:28:29.503Z,98187.03
2022-11-21T01:28:39.453Z,98185.56
2022-11-21T01:28:49.460Z,98188.17
2022-11-21T01:28:59.407Z,98188.98
2022-11-21T01:29:09.406Z,98185.84
2022-11-21T01:29:19.392Z,98184.45
2022-11-21T01:29:29.493Z,98190.07
2022-11-21T01:29:39.509Z,98184.76
2022-11-21T01:29:49.382Z,98184.43
2022-11-21T01:29:59.488Z,98188.86
2022-11-21T01:30:09.391Z,98184.43
2022-11-21T01:30:19.457Z,98187.06
2022-11-21T01:30:29.416Z,98183.30
2022-11-21T01:30:39.384Z,98189.09
2022-11-21T01:30:49.399Z,98183.66
2022-11-21T01:30:59.397Z,98183.19
2022-11-21T01:31:09.435Z,98183.81
2022-11-21T01:31:19.479Z,98177.63
2022-11-21T01:31:29.423Z,98176.33
2022-11-21T01:31:39.455Z,98181.88
2022-11-21T01:31:49.470Z,98171.72
2022-11-21T01:31:59.410Z,98181.41
2022-11-21T01:32:09.480Z,98180.92
2022-11-21T01:32:19.391Z,98176.42
2022-11-21T01:32:29.477Z,98178.80
2022-11-21T01:32:39.414Z,98178.52
2022-11-21T01:32:49.454Z,98177.88
2022-11-21T01:32:59.394Z,98180.28
2022-11-21T01:33:09.380Z,98181.85
2022-11-21T01:33:19.458Z,98177.03
2022-11-21T01:33:29.432Z,98179.17
2022-11-21T01:33:39.430Z,98180.16
2022-11-21T01:33:49.503Z,98181.37
2022-11-21T01:33:59.398Z,98177.62
2022-11-21T01:34:09.420Z,98180.05
2022-11-21T01:34:19.498Z,98180.42
2022-11-21T01:34:29.796Z,98178.60
2022-11-21T01:34:39.402Z,98181.67
2022-11-21T01:34:49.400Z,98180.16
2022-11-21T01:34:59.425Z,98181.94
2022-11-21T01:35:09.396Z,98176.41
2022-11-21T01:35:19.511Z,98180.44
2022-11-21T01:35:29.470Z,98178.20
2022-11-21T01:35:39.389Z,98177.41
2022-11-21T01:35:49.509Z,98179.72
2022-11-21T01:35:59.504Z,98182.83
2022-11-21T01:36:09.478Z,98182.10
2022-11-21T01:36:19.494Z,98182.48
2022-11-21T01:36:29.394Z,98181.91
2022-11-21T01:36:39.380Z,98188.14
2022-11-21T01:36:49.480Z,98185.21
2022-11-21T01:36:59.383Z,98175.97
2022-11-21T01:37:09.485Z,98181.71
2022-11-21T01:37:19.408Z,98180.57
2022-11-21T01:37:29.426Z,98184.20
2022-11-21T01:37:39.419Z,98185.86
2022-11-21T01:37:49.487Z,98182.45
2022-11-21T01:37:59.502Z,98186.43
2022-11-21T01:38:09.484Z,98187.03
2022-11-21T01:38:19.498Z,98183.75
2022-11-21T01:38:29.479Z,98188.55
2022-11-21T01:38:39.391Z,98183.95
2022-11-21T01:38:49.417Z,98183.73
2022-11-21T01:38:59.499Z,98184.88
2022-11-21T01:39:09.461Z,98184.39
2022-11-21T01:39:19.500Z,98177.20
2022-11-21T01:39:29.490Z,98186.50
2022-11-21T01:39:39.464Z,98180.92
2022-11-21T01:39:49.423Z,98178.55
2022-11-21T01:39:59.395Z,98180.43
2022-11-21T01:40:09.441Z,98187.91
2022-11-21T01:40:19.435Z,98183.27
2022-11-21T01:40:29.382Z,98180.51
2022-11-21T01:40:39.433Z,98180.18
2022-11-21T01:40:49.419Z,98186.04
2022-11-21T01:40:59.390Z,98182.19
2022-11-21T01:41:09.493Z,98182.02
2022-11-21T01:41:19.466Z,98185.33
2022-11-21T01:41:29.488Z,98184.98
2022-11-21T01:41:39.500Z,98179.16
2022-11-21T01:41:49.503Z,98180.38
2022-11-21T01:41:59.448Z,98180.21
2022-11-21T01:42:09.378Z,98182.64
2022-11-21T01:42:19.388Z,98184.85
2022-11-21T01:42:29.394Z,98182.02
2022-11-21T01:42:39.399Z,98183.97
2022-11-21T01:42:49.441Z,98184.23
2022-11-21T01:42:59.415Z,98181.69
2022-11-21T01:43:09.403Z,98182.59
2022-11-21T01:43:19.433Z,98180.91
2022-11-21T01:43:29.399Z,98180.16
2022-11-21T01:43:39.384Z,98177.39
2022-11-21T01:43:49.402Z,98183.59
2022-11-21T01:43:59.402Z,98179.75
2022-11-21T01:44:09.493Z,98178.12
2022-11-21T01:44:19.485Z,98176.55
2022-11-21T01:44:29.723Z,98175.03
2022-11-21T01:44:39.408Z,98171.70
2022-11-21T01:44:49.420Z,98178.45
2022-11-21T01:44:59.499Z,98174.49
2022-11-21T01:45:09.435Z,98173.89
2022-11-21T01:45:19.413Z,98172.48
2022-11-21T01:45:29.511Z,98174.49
2022-11-21T01:45:39.494Z,98173.14
2022-11-21T01:45:49.444Z,98175.58
2022-11-21T01:45:59.433Z,98173.62
2022-11-21T01:46:09.423Z,98172.00
2022-11-21T01:46:19.377Z,98171.97
2022-11-21T01:46:29.433Z,98169.53
2022-11-21T01:46:39.418Z,98169.07
2022-11-21T01:46:49.402Z,98168.83
2022-11-21T01:46:59.486Z,98172.09
2022-11-21T01:47:09.404Z,98167.20
2022-11-21T01:47:19.455Z,98172.09
2022-11-21T01:47:29.399Z,98168.45
2022-11-21T01:47:39.448Z,98171.20
2022-11-21T01:47:49.404Z,98171.09
2022-11-21T01:47:59.503Z,98165.73
2022-11-21T01:48:09.458Z,98168.12
2022-11-21T01:48:19.497Z,98168.29
2022-11-21T01:48:29.465Z,98176.18
2022-11-21T01:48:39.456Z,98171.92
2022-11-21T01:48:49.383Z,98172.58
2022-11-21T01:48:59.465Z,98172.48
2022-11-21T01:49:09.466Z,98174.11
2022-11-21T01:49:19.504Z,98173.44
2022-11-21T01:49:29.503Z,98167.94
2022-11-21T01:49:39.450Z,98170.91
2022-11-21T01:49:49.522Z,98174.38
2022-11-21T01:49:59.475Z,98170.06
2022-11-21T01:50:12.973Z,98170.55
2022-11-21T01:50:19.455Z,98165.28
2022-11-21T01:50:29.386Z,98170.27
2022-11-21T01:50:39.395Z,98171.58
2022-11-21T01:50:49.481Z,98167.45
2022-11-21T01:50:59.461Z,98167.08
2022-11-21T01:51:09.485Z,98168.57
2022-11-21T01:51:19.432Z,98171.95
2022-11-21T01:51:29.395Z,98171.14
2022-11-21T01:51:39.398Z,98171.55
2022-11-21T01:51:49.474Z,98169.35
2022-11-21T01:51:59.492Z,98172.31
2022-11-21T01:52:09.484Z,98171.77
2022-11-21T01:52:19.428Z,98169.80
2022-11-21T01:52:29.393Z,98163.69
2022-11-21T01:52:39.406Z,98171.59
2022-11-21T01:52:49.512Z,98171.66
2022-11-21T01:52:59.488Z,98167.22
2022-11-21T01:53:09.393Z,98171.59
2022-11-21T01:53:19.412Z,98167.75
2022-11-21T01:53:29.384Z,98167.70
2022-11-21T01:53:39.421Z,98170.12
2022-11-21T01:53:49.436Z,98173.56
2022-11-21T01:53:59.517Z,98171.70
2022-11-21T01:54:09.425Z,98170.28
2022-11-21T01:54:19.395Z,98172.02
2022-11-21T01:54:29.720Z,98175.03
2022-11-21T01:54:39.461Z,98170.16
2022-11-21T01:54:49.424Z,98172.50
2022-11-21T01:54:59.436Z,98170.39
2022-11-21T01:55:09.415Z,98169.20
2022-11-21T01:55:19.390Z,98172.43
2022-11-21T01:55:29.515Z,98169.98
2022-11-21T01:55:39.533Z,98174.38
2022-11-21T01:55:49.486Z,98170.98
2022-11-21T01:55:59.432Z,98171.23
2022-11-21T01:56:09.487Z,98173.05
2022-11-21T01:56:19.421Z,98167.30
2022-11-21T01:56:29.483Z,98168.55
2022-11-21T01:56:39.433Z,98169.27
2022-11-21T01:56:49.381Z,98174.02
2022-11-21T01:56:59.512Z,98172.88
2022-11-21T01:57:09.516Z,98172.58
2022-11-21T01:57:19.389Z,98170.09
2022-11-21T01:57:29.467Z,98177.11